createdAt,value
2019-05-18T00:00:02.814Z,6.78
2019-05-18T00:01:02.405Z,7.34
2019-05-18T00:02:02.650Z,5.71
2019-05-18T00:03:02.366Z,6.8
2019-05-18T00:04:03.052Z,4.92
2019-05-18T00:05:03.143Z,5.79
2019-05-18T00:06:03.055Z,4.98
2019-05-18T00:07:02.760Z,5.29
2019-05-18T00:08:02.913Z,8.36
2019-05-18T00:09:01.379Z,5.32
2019-05-18T00:10:03.339Z,6.19
2019-05-18T00:11:03.031Z,5.45
2019-05-18T00:12:02.946Z,14.42
2019-05-18T00:13:03.462Z,5.76
2019-05-18T00:14:02.787Z,5.11
2019-05-18T00:15:02.496Z,6.41
2019-05-18T00:16:02.451Z,9.29
2019-05-18T00:17:03.296Z,8.58
2019-05-18T00:18:02.726Z,5.3
2019-05-18T00:19:03.048Z,5.8
2019-05-18T00:20:02.695Z,5.19
2019-05-18T00:21:02.921Z,12.16
2019-05-18T00:22:02.658Z,5.97
2019-05-18T00:23:03.008Z,8.96
2019-05-18T00:24:02.917Z,6.69
2019-05-18T00:25:03.351Z,5.84
2019-05-18T00:26:02.716Z,6.44
2019-05-18T00:27:02.913Z,6.75
2019-05-18T00:28:02.671Z,4.73
2019-05-18T00:29:02.909Z,5.45
2019-05-18T00:30:02.686Z,5.11
2019-05-18T00:31:03.075Z,6.51
2019-05-18T00:32:02.516Z,6.21
2019-05-18T00:33:03.167Z,5.49
2019-05-18T00:34:02.604Z,5.56
2019-05-18T00:35:03.285Z,4.93
2019-05-18T00:36:03.134Z,5.71
2019-05-18T00:37:02.780Z,5.71
2019-05-18T00:38:03.071Z,5.84
2019-05-18T00:39:02.861Z,5.84
2019-05-18T00:40:03.392Z,5.85
2019-05-18T00:41:02.527Z,8.21
2019-05-18T00:42:03.350Z,5.88
2019-05-18T00:43:03.016Z,10.35
2019-05-18T00:44:03.404Z,10.35
2019-05-18T00:45:02.797Z,6.58
2019-05-18T00:46:03.044Z,5.96
2019-05-18T00:47:02.699Z,6.05
2019-05-18T00:48:03.135Z,6.19
2019-05-18T00:49:03.009Z,6.23
2019-05-18T00:50:03.092Z,6.34
2019-05-18T00:51:02.687Z,5.96
2019-05-18T00:52:02.336Z,6.15
2019-05-18T00:53:02.906Z,5.38
2019-05-18T00:54:02.335Z,7.04
2019-05-18T00:55:02.927Z,16.12
2019-05-18T00:56:03.285Z,6.16
2019-05-18T00:57:02.558Z,5.93
2019-05-18T00:58:03.038Z,9.64
2019-05-18T00:59:02.409Z,6.25
2019-05-18T01:00:03.337Z,6.9
2019-05-18T01:01:03.180Z,7.36
2019-05-18T01:02:02.900Z,6.1
2019-05-18T01:03:02.987Z,5.82
2019-05-18T01:04:02.440Z,7.65
2019-05-18T01:05:02.857Z,6.5
2019-05-18T01:06:03.156Z,6.94
2019-05-18T01:07:02.573Z,6.4
2019-05-18T01:08:02.874Z,7.39
2019-05-18T01:09:02.550Z,9.84
2019-05-18T01:10:03.014Z,6.21
2019-05-18T01:11:03.291Z,5.75
2019-05-18T01:12:02.759Z,7.99
2019-05-18T01:13:03.311Z,5.5
2019-05-18T01:14:02.736Z,5.76
2019-05-18T01:15:03.093Z,6.26
2019-05-18T01:16:02.549Z,7.52
2019-05-18T01:17:03.256Z,7.06
2019-05-18T01:18:02.582Z,8.46
2019-05-18T01:19:02.852Z,9.99
2019-05-18T01:20:02.692Z,10.65
2019-05-18T01:21:02.792Z,8.26
2019-05-18T01:22:03.085Z,5.94
2019-05-18T01:23:02.665Z,7.62
2019-05-18T01:24:03.296Z,5.76
2019-05-18T01:25:02.899Z,7.44
2019-05-18T01:26:02.663Z,7.44
2019-05-18T01:27:02.978Z,7.53
2019-05-18T01:28:02.765Z,8.78
2019-05-18T01:29:02.772Z,8.78
2019-05-18T01:30:03.345Z,6.54
2019-05-18T01:31:02.623Z,6.61
2019-05-18T01:32:02.470Z,6.61
2019-05-18T01:33:03.233Z,7.24
2019-05-18T01:34:02.460Z,7.55
2019-05-18T01:35:02.775Z,6.39
2019-05-18T01:36:03.136Z,10.12
2019-05-18T01:37:02.209Z,6.41
2019-05-18T01:38:02.976Z,7.14
2019-05-18T01:39:02.986Z,7.32
2019-05-18T01:40:03.242Z,5.48
2019-05-18T01:41:02.443Z,8.03
2019-05-18T01:42:02.573Z,9.94
2019-05-18T01:43:03.334Z,6.09
2019-05-18T01:44:03.020Z,5.41
2019-05-18T01:45:15.707Z,7.28
2019-05-18T01:46:02.987Z,6.65
2019-05-18T01:47:02.628Z,6.17
2019-05-18T01:48:13.038Z,6.88
2019-05-18T01:49:02.639Z,5.51
2019-05-18T01:50:03.148Z,13.15
2019-05-18T01:51:03.170Z,7.13
2019-05-18T01:52:02.292Z,8.1
2019-05-18T01:53:03.104Z,5.95
2019-05-18T01:54:02.554Z,6.35
2019-05-18T01:55:02.918Z,5.84
2019-05-18T01:56:02.218Z,9.66
2019-05-18T01:57:02.811Z,8.32
2019-05-18T01:58:03.328Z,6.26
2019-05-18T01:59:02.983Z,6.15
2019-05-18T02:00:02.560Z,6.25
2019-05-18T02:01:02.880Z,8.18
2019-05-18T02:02:03.146Z,7.6
2019-05-18T02:03:02.571Z,11.63
2019-05-18T02:04:03.144Z,6.51
2019-05-18T02:05:02.854Z,8.78
2019-05-18T02:06:02.828Z,6.29
2019-05-18T02:07:03.340Z,6.36
2019-05-18T02:08:02.406Z,9.34
2019-05-18T02:09:03.139Z,12.35
2019-05-18T02:10:02.817Z,6.58
2019-05-18T02:11:02.995Z,6.8
2019-05-18T02:12:02.838Z,6.16
2019-05-18T02:13:03.205Z,7.18
2019-05-18T02:14:02.671Z,5.85
2019-05-18T02:15:03.197Z,6.54
2019-05-18T02:16:02.334Z,10.25
2019-05-18T02:17:03.114Z,7.06
2019-05-18T02:18:02.614Z,6.86
2019-05-18T02:19:03.069Z,6.86
2019-05-18T02:20:02.739Z,9.6
2019-05-18T02:21:02.943Z,9.6
2019-05-18T02:22:02.378Z,6.94
2019-05-18T02:23:03.007Z,7.53
2019-05-18T02:24:02.421Z,7.53
2019-05-18T02:25:03.254Z,12.32
2019-05-18T02:26:02.732Z,6.71
2019-05-18T02:27:03.289Z,6.65
2019-05-18T02:28:02.289Z,6.87
2019-05-18T02:29:02.996Z,6.77
2019-05-18T02:30:02.541Z,7.15
2019-05-18T02:31:03.253Z,6.87
2019-05-18T02:32:02.589Z,9.84
2019-05-18T02:33:02.965Z,8.87
2019-05-18T02:34:02.753Z,6.81
2019-05-18T02:35:03.103Z,8.82
2019-05-18T02:36:03.123Z,7.74
2019-05-18T02:37:03.499Z,7.56
2019-05-18T02:38:02.231Z,5.98
2019-05-18T02:39:02.906Z,6.22
2019-05-18T02:40:02.453Z,6.49
2019-05-18T02:41:03.184Z,7.67
2019-05-18T02:42:02.885Z,6.92
2019-05-18T02:43:02.761Z,7.26
2019-05-18T02:44:02.986Z,8.91
2019-05-18T02:45:02.529Z,8.19
2019-05-18T02:46:02.631Z,6.4
2019-05-18T02:47:02.789Z,8.17
2019-05-18T02:48:02.682Z,7.55
2019-05-18T02:49:02.793Z,7.46
2019-05-18T02:50:02.531Z,7.5
2019-05-18T02:51:02.990Z,6.47
2019-05-18T02:52:02.767Z,6.86
2019-05-18T02:53:02.822Z,7.21
2019-05-18T02:54:02.395Z,6.59
2019-05-18T02:55:02.741Z,12.72
2019-05-18T02:56:02.548Z,7.54
2019-05-18T02:57:03.110Z,6.47
2019-05-18T02:58:02.486Z,7.3
2019-05-18T02:59:02.786Z,6.88
2019-05-18T03:00:03.288Z,6.43
2019-05-18T03:01:02.717Z,6.19
2019-05-18T03:02:02.548Z,7.42
2019-05-18T03:03:02.597Z,7.89
2019-05-18T03:04:02.930Z,7.92
2019-05-18T03:05:02.564Z,5.82
2019-05-18T03:06:03.205Z,6.7
2019-05-18T03:07:02.485Z,6.7
2019-05-18T03:08:03.125Z,7
2019-05-18T03:09:03.098Z,7
2019-05-18T03:10:02.998Z,7.38
2019-05-18T03:11:03.260Z,6.54
2019-05-18T03:12:02.760Z,6.54
2019-05-18T03:13:02.312Z,7.04
2019-05-18T03:14:02.995Z,6.92
2019-05-18T03:15:02.567Z,5.89
2019-05-18T03:16:02.751Z,10.21
2019-05-18T03:17:03.097Z,8.74
2019-05-18T03:18:02.468Z,7.87
2019-05-18T03:19:07.904Z,10.49
2019-05-18T03:20:02.718Z,7.58
2019-05-18T03:21:02.967Z,7.04
2019-05-18T03:22:02.689Z,7.54
2019-05-18T03:23:02.903Z,7.43
2019-05-18T03:24:02.507Z,15.54
2019-05-18T03:25:02.788Z,7.44
2019-05-18T03:26:03.225Z,8.88
2019-05-18T03:27:02.993Z,11.92
2019-05-18T03:28:03.123Z,6.33
2019-05-18T03:29:03.085Z,6.74
2019-05-18T03:30:02.859Z,7.18
2019-05-18T03:31:02.866Z,7.09
2019-05-18T03:32:02.641Z,8.48
2019-05-18T03:33:03.093Z,6.76
2019-05-18T03:34:02.456Z,6.97
2019-05-18T03:35:02.906Z,7.19
2019-05-18T03:36:03.374Z,8.87
2019-05-18T03:37:02.558Z,6.65
2019-05-18T03:38:03.321Z,6.96
2019-05-18T03:39:02.577Z,9.32
2019-05-18T03:40:03.327Z,8.21
2019-05-18T03:41:02.650Z,8.35
2019-05-18T03:42:03.205Z,6.99
2019-05-18T03:43:02.508Z,6.81
2019-05-18T03:44:03.079Z,8.25
2019-05-18T03:45:02.360Z,7.01
2019-05-18T03:46:03.040Z,7.42
2019-05-18T03:47:03.298Z,7.35
2019-05-18T03:48:02.739Z,7.09
2019-05-18T03:49:03.117Z,7.61
2019-05-18T03:50:03.023Z,7.31
2019-05-18T03:51:03.017Z,6.45
2019-05-18T03:52:02.823Z,6.75
2019-05-18T03:53:03.205Z,7.46
2019-05-18T03:54:02.744Z,7.29
2019-05-18T03:55:03.293Z,7.31
2019-05-18T03:56:02.403Z,7.4
2019-05-18T03:57:03.272Z,7.3
2019-05-18T03:58:02.976Z,7.3
2019-05-18T03:59:03.177Z,7.64
2019-05-18T04:00:02.909Z,7.64
2019-05-18T04:01:02.508Z,6.68
2019-05-18T04:02:02.294Z,7.42
2019-05-18T04:03:03.065Z,7.42
2019-05-18T04:04:02.176Z,6.9
2019-05-18T04:05:03.278Z,6.78
2019-05-18T04:06:02.404Z,7.92
2019-05-18T04:07:03.157Z,6.51
2019-05-18T04:08:03.357Z,6.81
2019-05-18T04:09:02.733Z,7.07
2019-05-18T04:10:03.356Z,6.09
2019-05-18T04:11:02.702Z,7.05
2019-05-18T04:12:02.142Z,8.85
2019-05-18T04:13:03.266Z,6.06
2019-05-18T04:14:07.213Z,7.21
2019-05-18T04:15:03.294Z,7.47
2019-05-18T04:16:02.732Z,7.74
2019-05-18T04:17:03.213Z,7.99
2019-05-18T04:18:02.643Z,6.79
2019-05-18T04:19:03.045Z,8.47
2019-05-18T04:20:03.296Z,7.09
2019-05-18T04:21:02.634Z,9.11
2019-05-18T04:22:02.379Z,6.79
2019-05-18T04:23:02.873Z,6.95
2019-05-18T04:24:02.552Z,7.61
2019-05-18T04:25:02.827Z,9.28
2019-05-18T04:26:02.570Z,7.31
2019-05-18T04:27:03.150Z,6.99
2019-05-18T04:28:02.944Z,7.19
2019-05-18T04:29:03.258Z,8.31
2019-05-18T04:30:02.878Z,8.11
2019-05-18T04:31:03.122Z,7.66
2019-05-18T04:32:02.583Z,8.89
2019-05-18T04:33:02.804Z,8.14
2019-05-18T04:34:02.797Z,10.04
2019-05-18T04:35:03.399Z,10.62
2019-05-18T04:36:02.754Z,9.19
2019-05-18T04:37:02.978Z,10.88
2019-05-18T04:38:02.783Z,8.14
2019-05-18T04:39:03.157Z,7.82
2019-05-18T04:40:02.457Z,8.17
2019-05-18T04:41:02.908Z,7.08
2019-05-18T04:42:02.696Z,7.52
2019-05-18T04:43:02.960Z,7.11
2019-05-18T04:44:02.493Z,8.86
2019-05-18T04:45:02.955Z,7.79
2019-05-18T04:46:03.099Z,6.57
2019-05-18T04:47:02.211Z,8.46
2019-05-18T04:48:02.958Z,7.49
2019-05-18T04:49:02.910Z,7.49
2019-05-18T04:50:05.518Z,8.74
2019-05-18T04:51:02.413Z,8.17
2019-05-18T04:52:02.822Z,8.17
2019-05-18T04:53:02.820Z,9.75
2019-05-18T04:54:03.252Z,8.82
2019-05-18T04:55:03.368Z,8.82
2019-05-18T04:56:02.367Z,7.58
2019-05-18T04:57:02.899Z,6.86
2019-05-18T04:58:02.480Z,7.08
2019-05-18T04:59:02.596Z,11.84
2019-05-18T05:00:03.248Z,7.37
2019-05-18T05:01:02.866Z,6.94
2019-05-18T05:02:02.498Z,9.37
2019-05-18T05:03:03.110Z,7.76
2019-05-18T05:04:02.578Z,7.82
2019-05-18T05:05:03.086Z,12.95
2019-05-18T05:06:02.873Z,8.53
2019-05-18T05:07:02.400Z,8.24
2019-05-18T05:08:02.736Z,7.94
2019-05-18T05:09:02.449Z,6.57
2019-05-18T05:10:04.749Z,6.96
2019-05-18T05:11:02.244Z,7.12
2019-05-18T05:12:02.895Z,7.71
2019-05-18T05:13:02.536Z,7.18
2019-05-18T05:14:02.936Z,7.53
2019-05-18T05:15:02.510Z,7.34
2019-05-18T05:16:02.983Z,7.18
2019-05-18T05:17:02.369Z,9.03
2019-05-18T05:18:03.078Z,7.59
2019-05-18T05:19:02.467Z,8.27
2019-05-18T05:20:03.029Z,8.18
2019-05-18T05:21:03.263Z,7.52
2019-05-18T05:22:02.429Z,7.57
2019-05-18T05:23:02.751Z,9.46
2019-05-18T05:24:02.573Z,9.05
2019-05-18T05:25:02.675Z,10.86
2019-05-18T05:26:03.153Z,7.51
2019-05-18T05:27:02.408Z,8.21
2019-05-18T05:28:02.763Z,7.83
2019-05-18T05:29:02.496Z,7.09
2019-05-18T05:30:02.848Z,6.94
2019-05-18T05:31:02.370Z,6.84
2019-05-18T05:32:03.037Z,7.59
2019-05-18T05:33:03.376Z,7.77
2019-05-18T05:34:02.933Z,7.43
2019-05-18T05:35:02.747Z,7.25
2019-05-18T05:36:03.033Z,7.48
2019-05-18T05:37:02.605Z,7.48
2019-05-18T05:38:02.859Z,6.93
2019-05-18T05:39:02.650Z,7.31
2019-05-18T05:40:02.598Z,7.31
2019-05-18T05:41:03.139Z,5.98
2019-05-18T05:42:02.420Z,8.06
2019-05-18T05:43:02.920Z,8.06
2019-05-18T05:44:02.379Z,7.32
2019-05-18T05:45:02.664Z,9.99
2019-05-18T05:46:03.006Z,11.29
2019-05-18T05:47:02.491Z,6.75
2019-05-18T05:48:03.140Z,7
2019-05-18T05:49:02.542Z,7.99
2019-05-18T05:50:03.205Z,7.35
2019-05-18T05:51:02.850Z,10.74
2019-05-18T05:52:02.996Z,6.78
2019-05-18T05:53:02.563Z,6.88
2019-05-18T05:54:03.128Z,8.46
2019-05-18T05:55:02.748Z,7.6
2019-05-18T05:56:02.711Z,7.66
2019-05-18T05:57:03.415Z,12.39
2019-05-18T05:58:02.404Z,8.02
2019-05-18T05:59:02.741Z,8.66
2019-05-18T06:00:02.404Z,8.31
2019-05-18T06:01:02.418Z,7.6
2019-05-18T06:02:03.172Z,8.29
2019-05-18T06:03:03.230Z,6.11
2019-05-18T06:04:03.217Z,6.79
2019-05-18T06:05:03.470Z,7.32
2019-05-18T06:06:03.047Z,9.24
2019-05-18T06:07:03.149Z,7.07
2019-05-18T06:08:02.712Z,7.05
2019-05-18T06:09:02.866Z,6.9
2019-05-18T06:10:03.235Z,8.59
2019-05-18T06:11:02.565Z,7.2
2019-05-18T06:12:02.745Z,7.83
2019-05-18T06:13:02.258Z,8.52
2019-05-18T06:14:02.676Z,10.88
2019-05-18T06:15:02.596Z,7.35
2019-05-18T06:16:02.500Z,7.81
2019-05-18T06:17:03.465Z,6.55
2019-05-18T06:18:02.770Z,6.54
2019-05-18T06:19:02.361Z,8.54
2019-05-18T06:20:03.205Z,10.27
2019-05-18T06:21:03.289Z,6.29
2019-05-18T06:22:02.616Z,5.85
2019-05-18T06:23:03.281Z,7.07
2019-05-18T06:24:02.415Z,6.09
2019-05-18T06:25:03.856Z,8.69
2019-05-18T06:26:03.498Z,6.58
2019-05-18T06:27:03.255Z,6.23
2019-05-18T06:28:02.586Z,6.23
2019-05-18T06:29:03.087Z,6.7
2019-05-18T06:30:03.130Z,7.21
2019-05-18T06:31:02.577Z,7.21
2019-05-18T06:32:03.096Z,6.74
2019-05-18T06:33:02.562Z,6.66
2019-05-18T06:34:02.884Z,12.82
2019-05-18T06:35:03.082Z,6.74
2019-05-18T06:36:03.091Z,7.98
2019-05-18T06:37:03.186Z,7.71
2019-05-18T06:38:02.714Z,7.71
2019-05-18T06:39:02.572Z,6.71
2019-05-18T06:40:03.005Z,6.31
2019-05-18T06:41:03.248Z,6.42
2019-05-18T06:42:02.796Z,7.15
2019-05-18T06:43:03.420Z,6.41
2019-05-18T06:44:02.831Z,6.51
2019-05-18T06:45:03.081Z,9.12
2019-05-18T06:46:02.710Z,7.21
2019-05-18T06:47:03.279Z,6.04
2019-05-18T06:48:02.717Z,7.39
2019-05-18T06:49:02.795Z,6.34
2019-05-18T06:50:02.443Z,6.96
2019-05-18T06:51:06.995Z,6.07
2019-05-18T06:52:02.633Z,5.99
2019-05-18T06:53:02.923Z,6.95
2019-05-18T06:54:03.028Z,10.41
2019-05-18T06:55:02.663Z,6.94
2019-05-18T06:56:03.201Z,6.65
2019-05-18T06:57:02.230Z,7.05
2019-05-18T06:58:02.805Z,6.94
2019-05-18T06:59:03.376Z,10.84
2019-05-18T07:00:02.935Z,6.14
2019-05-18T07:01:02.587Z,6.98
2019-05-18T07:02:02.730Z,6.42
2019-05-18T07:03:02.493Z,6.02
2019-05-18T07:04:02.799Z,6.25
2019-05-18T07:05:03.372Z,7.04
2019-05-18T07:06:02.571Z,6.84
2019-05-18T07:07:03.101Z,6.71
2019-05-18T07:08:02.336Z,5.91
2019-05-18T07:09:03.006Z,6.32
2019-05-18T07:10:03.116Z,7.04
2019-05-18T07:11:02.572Z,6.71
2019-05-18T07:12:03.309Z,6.78
2019-05-18T07:13:02.883Z,6.55
2019-05-18T07:14:03.055Z,6.38
2019-05-18T07:15:02.933Z,7.04
2019-05-18T07:16:02.549Z,6.65
2019-05-18T07:17:02.848Z,8.34
2019-05-18T07:18:03.009Z,6.18
2019-05-18T07:19:02.630Z,6.64
2019-05-18T07:20:03.001Z,6.64
2019-05-18T07:21:03.235Z,6.17
2019-05-18T07:22:02.649Z,5.65
2019-05-18T07:23:02.435Z,5.65
2019-05-18T07:24:02.904Z,7.64
2019-05-18T07:25:03.390Z,6.57
2019-05-18T07:26:02.481Z,6.57
2019-05-18T07:27:03.450Z,6.49
2019-05-18T07:28:02.551Z,10.88
2019-05-18T07:29:05.608Z,10.22
2019-05-18T07:30:02.804Z,8.49
2019-05-18T07:31:02.346Z,6.45
2019-05-18T07:32:02.937Z,12.04
2019-05-18T07:33:03.070Z,6.56
2019-05-18T07:34:02.371Z,10.02
2019-05-18T07:35:02.526Z,9.83
2019-05-18T07:36:02.893Z,6.62
2019-05-18T07:37:03.060Z,8.16
2019-05-18T07:38:03.150Z,8.04
2019-05-18T07:39:02.489Z,6.72
2019-05-18T07:40:03.188Z,9.66
2019-05-18T07:41:02.456Z,7.16
2019-05-18T07:42:03.000Z,7.31
2019-05-18T07:43:02.458Z,6.93
2019-05-18T07:44:03.450Z,6.78
2019-05-18T07:45:02.708Z,6.41
2019-05-18T07:46:02.998Z,8.43
2019-05-18T07:47:03.287Z,7.39
2019-05-18T07:48:02.822Z,8.51
2019-05-18T07:49:03.373Z,6.93
2019-05-18T07:50:02.742Z,6.94
2019-05-18T07:51:02.879Z,10.69
2019-05-18T07:52:02.595Z,6.14
2019-05-18T07:53:02.416Z,7.41
2019-05-18T07:54:02.656Z,7.68
2019-05-18T07:55:03.219Z,12.01
2019-05-18T07:56:02.592Z,6.79
2019-05-18T07:57:03.410Z,7.35
2019-05-18T07:58:02.743Z,7.18
2019-05-18T07:59:03.142Z,6.56
2019-05-18T08:00:03.510Z,6.27
2019-05-18T08:01:02.656Z,7.04
2019-05-18T08:02:03.282Z,7.49
2019-05-18T08:03:02.980Z,7.08
2019-05-18T08:04:02.316Z,7.85
2019-05-18T08:05:03.001Z,7.51
2019-05-18T08:06:03.174Z,6.96
2019-05-18T08:07:03.922Z,7.27
2019-05-18T08:08:03.405Z,7.27
2019-05-18T08:09:03.063Z,6.42
2019-05-18T08:10:03.553Z,8.56
2019-05-18T08:11:02.635Z,6.26
2019-05-18T08:12:03.248Z,6.26
2019-05-18T08:13:02.960Z,6.25
2019-05-18T08:14:03.234Z,6.88
2019-05-18T08:15:02.999Z,6.88
2019-05-18T08:16:03.202Z,9.05
2019-05-18T08:17:02.364Z,7.64
2019-05-18T08:18:03.377Z,7.64
2019-05-18T08:19:02.771Z,6.24
2019-05-18T08:20:03.267Z,6.5
2019-05-18T08:21:03.095Z,6.58
2019-05-18T08:22:02.434Z,6.69
2019-05-18T08:23:02.897Z,7.72
2019-05-18T08:24:03.442Z,6.66
2019-05-18T08:25:03.036Z,7.02
2019-05-18T08:26:03.426Z,6.81
2019-05-18T08:27:02.699Z,6.88
2019-05-18T08:28:03.339Z,8.38
2019-05-18T08:29:02.880Z,6.74
2019-05-18T08:30:02.430Z,7.62
2019-05-18T08:31:02.528Z,10.91
2019-05-18T08:32:05.187Z,7.59
2019-05-18T08:33:02.546Z,9.01
2019-05-18T08:34:02.342Z,6.82
2019-05-18T08:35:03.499Z,8.07
2019-05-18T08:36:02.826Z,6.8
2019-05-18T08:37:03.035Z,6.01
2019-05-18T08:38:02.357Z,6.92
2019-05-18T08:39:02.917Z,8.42
2019-05-18T08:40:03.451Z,6.72
2019-05-18T08:41:02.654Z,9.6
2019-05-18T08:42:02.949Z,9.29
2019-05-18T08:43:03.381Z,6.66
2019-05-18T08:44:02.859Z,7.66
2019-05-18T08:45:03.156Z,6.9
2019-05-18T08:46:02.934Z,7.44
2019-05-18T08:47:03.272Z,7.9
2019-05-18T08:48:02.720Z,8.66
2019-05-18T08:49:02.431Z,6.52
2019-05-18T08:50:02.897Z,7.36
2019-05-18T08:51:03.298Z,7.02
2019-05-18T08:52:08.070Z,6.75
2019-05-18T08:53:02.369Z,7.21
2019-05-18T08:54:02.447Z,6.79
2019-05-18T08:55:03.159Z,7
2019-05-18T08:56:02.632Z,6.85
2019-05-18T08:57:03.254Z,6.85
2019-05-18T08:58:02.857Z,6.66
2019-05-18T08:59:03.267Z,6.66
2019-05-18T09:00:03.047Z,9.37
2019-05-18T09:01:03.218Z,6.85
2019-05-18T09:02:02.670Z,6.85
2019-05-18T09:03:03.180Z,6.59
2019-05-18T09:04:02.829Z,7.13
2019-05-18T09:05:04.924Z,6.47
2019-05-18T09:06:02.808Z,9.37
2019-05-18T09:07:03.872Z,7.01
2019-05-18T09:08:02.711Z,7.9
2019-05-18T09:09:03.258Z,9.98
2019-05-18T09:10:02.563Z,7.45
2019-05-18T09:11:03.018Z,8.25
2019-05-18T09:12:03.382Z,7.15
2019-05-18T09:13:02.714Z,6.84
2019-05-18T09:14:03.390Z,9.09
2019-05-18T09:15:02.868Z,6.58
2019-05-18T09:16:03.172Z,6.28
2019-05-18T09:17:02.726Z,8.08
2019-05-18T09:18:04.934Z,7.39
2019-05-18T09:19:02.648Z,6.99
2019-05-18T09:20:03.310Z,6.86
2019-05-18T09:21:02.482Z,6.55
2019-05-18T09:22:03.134Z,6.39
2019-05-18T09:23:02.453Z,7.52
2019-05-18T09:24:02.773Z,7.54
2019-05-18T09:25:02.712Z,6.85
2019-05-18T09:26:02.315Z,6.15
2019-05-18T09:27:02.670Z,7.34
2019-05-18T09:28:03.273Z,7
2019-05-18T09:29:02.631Z,6.19
2019-05-18T09:30:02.741Z,8.72
2019-05-18T09:31:03.633Z,6.03
2019-05-18T09:32:02.521Z,6.91
2019-05-18T09:33:03.048Z,7.08
2019-05-18T09:34:02.746Z,7.08
2019-05-18T09:35:02.634Z,11.44
2019-05-18T09:36:02.852Z,7.21
2019-05-18T09:37:03.357Z,7.21
2019-05-18T09:38:02.700Z,9.55
2019-05-18T09:39:02.604Z,9.63
2019-05-18T09:40:03.207Z,6.11
2019-05-18T09:41:02.736Z,11.07
2019-05-18T09:42:03.020Z,6.25
2019-05-18T09:43:02.306Z,6.35
2019-05-18T09:44:02.804Z,6.62
2019-05-18T09:45:02.551Z,7.31
2019-05-18T09:46:02.920Z,8.24
2019-05-18T09:47:02.446Z,6.19
2019-05-18T09:48:02.871Z,6.42
2019-05-18T09:49:02.469Z,9.01
2019-05-18T09:50:02.584Z,7.82
2019-05-18T09:51:02.709Z,6.4
2019-05-18T09:52:03.450Z,7.44
2019-05-18T09:53:03.484Z,5.55
2019-05-18T09:54:02.783Z,7.84
2019-05-18T09:55:02.466Z,8.22
2019-05-18T09:56:03.120Z,6.05
2019-05-18T09:57:02.396Z,6.71
2019-05-18T09:58:02.616Z,5.28
2019-05-18T09:59:03.071Z,6.9
2019-05-18T10:00:02.924Z,7.08
2019-05-18T10:01:02.926Z,5.01
2019-05-18T10:02:02.850Z,6.79
2019-05-18T10:03:03.126Z,5.07
2019-05-18T10:04:02.624Z,6.54
2019-05-18T10:05:03.327Z,5.88
2019-05-18T10:06:02.641Z,5.62
2019-05-18T10:07:03.094Z,5.16
2019-05-18T10:08:02.643Z,4.84
2019-05-18T10:09:03.157Z,5.4
2019-05-18T10:10:03.251Z,7.89
2019-05-18T10:11:02.734Z,7.89
2019-05-18T10:12:03.342Z,6.72
2019-05-18T10:13:02.895Z,5.94
2019-05-18T10:14:03.285Z,5.94
2019-05-18T10:15:02.860Z,5.09
2019-05-18T10:16:03.097Z,5.1
2019-05-18T10:17:02.541Z,4.78
2019-05-18T10:18:02.583Z,5.24
2019-05-18T10:19:02.849Z,5.25
2019-05-18T10:20:02.612Z,9.83
2019-05-18T10:21:03.636Z,6.19
2019-05-18T10:22:02.320Z,8.59
2019-05-18T10:23:12.170Z,7.48
2019-05-18T10:24:02.894Z,5.54
2019-05-18T10:25:03.434Z,6.56
2019-05-18T10:26:02.277Z,4.77
2019-05-18T10:27:03.279Z,5.66
2019-05-18T10:28:02.253Z,6.6
2019-05-18T10:29:03.006Z,10.16
2019-05-18T10:30:03.122Z,5.69
2019-05-18T10:31:02.774Z,4.34
2019-05-18T10:32:03.089Z,4.51
2019-05-18T10:33:03.349Z,5.69
2019-05-18T10:34:02.805Z,7.68
2019-05-18T10:35:03.438Z,4.99
2019-05-18T10:36:02.602Z,4.74
2019-05-18T10:37:03.214Z,4.71
2019-05-18T10:38:02.314Z,4.76
2019-05-18T10:39:03.486Z,4.32
2019-05-18T10:40:02.913Z,8.27
2019-05-18T10:41:04.338Z,4.42
2019-05-18T10:42:02.702Z,5.68
2019-05-18T10:43:02.980Z,4.55
2019-05-18T10:44:02.697Z,4.65
2019-05-18T10:45:02.953Z,4.68
2019-05-18T10:46:02.309Z,3.86
2019-05-18T10:47:02.640Z,5.11
2019-05-18T10:48:02.541Z,4.23
2019-05-18T10:49:03.170Z,4.12
2019-05-18T10:50:02.694Z,4.07
2019-05-18T10:51:05.501Z,4.77
2019-05-18T10:52:03.384Z,5.63
2019-05-18T10:53:02.531Z,3.86
2019-05-18T10:54:02.995Z,6.3
2019-05-18T10:55:02.684Z,3.94
2019-05-18T10:56:02.757Z,3.94
2019-05-18T10:57:03.224Z,3.59
2019-05-18T10:58:02.156Z,4.56
2019-05-18T10:59:02.392Z,5.18
2019-05-18T11:00:02.784Z,2.8
2019-05-18T11:01:03.232Z,2.8
2019-05-18T11:02:03.143Z,5.45
2019-05-18T11:03:02.835Z,5.45
2019-05-18T11:04:03.181Z,3.32
2019-05-18T11:05:01.681Z,2.82
2019-05-18T11:06:03.332Z,2.82
2019-05-18T11:07:03.086Z,2.25
2019-05-18T11:08:02.974Z,4.14
2019-05-18T11:09:03.508Z,3.36
2019-05-18T11:10:03.099Z,4.78
2019-05-18T11:11:02.966Z,2.38
2019-05-18T11:12:02.565Z,2.09
2019-05-18T11:13:03.410Z,3.51
2019-05-18T11:14:02.465Z,6
2019-05-18T11:15:02.755Z,3.48
2019-05-18T11:16:03.050Z,3.55
2019-05-18T11:17:02.596Z,3.09
2019-05-18T11:18:03.068Z,7.05
2019-05-18T11:19:02.718Z,3.47
2019-05-18T11:20:03.265Z,2.49
2019-05-18T11:21:03.310Z,2.15
2019-05-18T11:22:03.327Z,2.09
2019-05-18T11:23:02.432Z,2.35
2019-05-18T11:24:03.277Z,12.19
2019-05-18T11:25:03.018Z,4.28
2019-05-18T11:26:03.282Z,2.31
2019-05-18T11:27:03.107Z,2.77
2019-05-18T11:28:02.601Z,5.16
2019-05-18T11:29:02.689Z,2.95
2019-05-18T11:30:02.832Z,4.12
2019-05-18T11:31:02.981Z,3.75
2019-05-18T11:32:03.171Z,2.2
2019-05-18T11:33:02.574Z,2.02
2019-05-18T11:34:02.764Z,2.78
2019-05-18T11:35:02.713Z,2.12
2019-05-18T11:36:03.312Z,2.79
2019-05-18T11:37:03.157Z,2.89
2019-05-18T11:38:02.777Z,3.18
2019-05-18T11:39:03.256Z,5.86
2019-05-18T11:40:02.856Z,2.38
2019-05-18T11:41:02.937Z,2.13
2019-05-18T11:42:02.745Z,2.26
2019-05-18T11:43:03.103Z,2.22
2019-05-18T11:44:02.400Z,2.15
2019-05-18T11:45:03.108Z,1.59
2019-05-18T11:46:03.081Z,3.86
2019-05-18T11:47:02.944Z,1.99
2019-05-18T11:48:02.677Z,3.16
2019-05-18T11:49:02.912Z,2.35
2019-05-18T11:50:02.520Z,1.92
2019-05-18T11:51:02.432Z,1.96
2019-05-18T11:52:03.462Z,1.69
2019-05-18T11:53:02.641Z,5.99
2019-05-18T11:54:03.027Z,2.16
2019-05-18T11:55:02.817Z,3.16
2019-05-18T11:56:03.029Z,5.24
2019-05-18T11:57:02.250Z,4.74
2019-05-18T11:58:02.991Z,2.41
2019-05-18T11:59:02.684Z,2.03
2019-05-18T12:00:02.463Z,2.02
2019-05-18T12:01:02.455Z,1.85
2019-05-18T12:02:02.807Z,2.05
2019-05-18T12:03:03.087Z,5.84
2019-05-18T12:04:02.556Z,1.68
2019-05-18T12:05:03.387Z,2.19
2019-05-18T12:06:02.676Z,2.31
2019-05-18T12:07:03.101Z,2.42
2019-05-18T12:08:03.368Z,4.65
2019-05-18T12:09:02.606Z,1.82
2019-05-18T12:10:03.083Z,2.08
2019-05-18T12:11:02.511Z,2.21
2019-05-18T12:12:03.228Z,2.57
2019-05-18T12:13:02.638Z,1.8
2019-05-18T12:14:03.139Z,1.38
2019-05-18T12:15:03.471Z,1.64
2019-05-18T12:16:03.014Z,1.64
2019-05-18T12:17:02.184Z,4.58
2019-05-18T12:18:02.536Z,2.28
2019-05-18T12:19:02.950Z,2.28
2019-05-18T12:20:02.884Z,1.65
2019-05-18T12:21:03.035Z,1.65
2019-05-18T12:22:02.715Z,1.81
2019-05-18T12:23:02.559Z,1.81
2019-05-18T12:24:14.555Z,1.46
2019-05-18T12:25:02.396Z,1.74
2019-05-18T12:26:03.356Z,1.72
2019-05-18T12:27:02.865Z,1.22
2019-05-18T12:28:03.089Z,1.89
2019-05-18T12:29:02.547Z,6.45
2019-05-18T12:30:03.150Z,1.5
2019-05-18T12:31:02.480Z,3.18
2019-05-18T12:32:02.978Z,2.67
2019-05-18T12:33:02.312Z,1.49
2019-05-18T12:34:02.995Z,8.54
2019-05-18T12:35:02.855Z,1.72
2019-05-18T12:36:02.451Z,2
2019-05-18T12:37:02.786Z,1.54
2019-05-18T12:38:03.095Z,1.82
2019-05-18T12:39:02.758Z,2
2019-05-18T12:40:03.225Z,1.92
2019-05-18T12:41:03.322Z,4.04
2019-05-18T12:42:02.532Z,1.69
2019-05-18T12:43:02.925Z,1.61
2019-05-18T12:44:02.928Z,2.92
2019-05-18T12:45:02.489Z,1.87
2019-05-18T12:46:02.499Z,1.45
2019-05-18T12:47:02.942Z,1.25
2019-05-18T12:48:02.408Z,3.49
2019-05-18T12:49:02.974Z,2.18
2019-05-18T12:50:03.298Z,1.47
2019-05-18T12:51:02.569Z,6.71
2019-05-18T12:52:03.312Z,1.55
2019-05-18T12:53:02.475Z,2.45
2019-05-18T12:54:02.839Z,1.87
2019-05-18T12:55:03.241Z,4.73
2019-05-18T12:56:02.662Z,2.49
2019-05-18T12:57:03.041Z,1.45
2019-05-18T12:58:02.643Z,2
2019-05-18T12:59:02.990Z,3.61
2019-05-18T13:00:02.519Z,7.5
2019-05-18T13:01:02.533Z,1.39
2019-05-18T13:02:02.685Z,1.25
2019-05-18T13:03:03.280Z,2.49
2019-05-18T13:04:02.510Z,1.58
2019-05-18T13:05:03.223Z,1.48
2019-05-18T13:06:02.341Z,1.45
2019-05-18T13:07:02.549Z,2.07
2019-05-18T13:08:02.657Z,3.83
2019-05-18T13:09:03.203Z,3.44
2019-05-18T13:10:03.316Z,3.29
2019-05-18T13:11:02.596Z,1.56
2019-05-18T13:12:02.909Z,6.09
2019-05-18T13:13:03.163Z,1.38
2019-05-18T13:14:02.905Z,2.01
2019-05-18T13:15:03.236Z,2.32
2019-05-18T13:16:02.580Z,3.1
2019-05-18T13:17:03.072Z,1.78
2019-05-18T13:18:02.474Z,1.66
2019-05-18T13:19:02.982Z,1.55